createdAt,value
2019-04-29T00:08:36.866Z,0.40
2019-04-29T00:11:05.015Z,0.87
2019-04-29T00:13:32.785Z,0.80
2019-04-29T00:16:04.998Z,1.10
2019-04-29T00:18:37.327Z,0.50
2019-04-29T00:21:05.085Z,0.40
2019-04-29T00:23:32.865Z,0.17
2019-04-29T00:26:00.633Z,0.53
2019-04-29T00:28:28.403Z,0.37
2019-04-29T00:30:56.362Z,0.30
2019-04-29T00:33:24.162Z,0.30
2019-04-29T00:35:51.902Z,1.03
2019-04-29T00:38:33.591Z,1.23
2019-04-29T00:41:11.694Z,1.37
2019-04-29T00:43:40.988Z,1.03
2019-04-29T00:46:09.077Z,0.20
2019-04-29T00:48:36.829Z,0.43
2019-04-29T00:51:04.610Z,0.63
2019-04-29T00:53:32.478Z,0.80
2019-04-29T00:56:01.786Z,1.07
2019-04-29T00:58:29.460Z,1.27
2019-04-29T01:00:57.173Z,0.63
2019-04-29T01:03:24.836Z,0.50
2019-04-29T01:05:52.540Z,0.93
2019-04-29T01:08:20.254Z,0.30
2019-04-29T01:10:47.972Z,0.93
2019-04-29T01:13:15.654Z,0.90
2019-04-29T01:15:43.374Z,0.57
2019-04-29T01:18:11.189Z,0.97
2019-04-29T01:20:38.953Z,0.70
2019-04-29T01:23:06.744Z,0.60
2019-04-29T01:25:34.405Z,0.50
2019-04-29T01:28:06.718Z,0.90
2019-04-29T01:30:35.870Z,0.60
2019-04-29T01:33:03.557Z,0.67
2019-04-29T01:35:31.326Z,0.60
2019-04-29T01:37:58.977Z,1.40
2019-04-29T01:40:33.980Z,0.20
2019-04-29T01:43:01.682Z,0.40
2019-04-29T01:45:29.375Z,0.93
2019-04-29T01:47:57.086Z,1.17
2019-04-29T01:50:24.778Z,0.30
2019-04-29T01:52:52.533Z,0.70
2019-04-29T01:55:20.222Z,0.83
2019-04-29T01:57:47.869Z,0.20
2019-04-29T02:00:15.795Z,0.30
2019-04-29T02:02:43.542Z,0.90
2019-04-29T02:05:11.411Z,0.60
2019-04-29T02:07:39.378Z,1.67
2019-04-29T02:10:08.670Z,0.63
2019-04-29T02:12:36.432Z,0.40
2019-04-29T02:15:05.542Z,0.47
2019-04-29T02:17:33.316Z,0.50
2019-04-29T02:20:01.182Z,0.93
2019-04-29T02:22:30.576Z,0.30
2019-04-29T02:24:59.842Z,0.50
2019-04-29T02:27:27.560Z,0.30
2019-04-29T02:29:55.312Z,0.27
2019-04-29T02:32:23.018Z,0.50
2019-04-29T02:34:50.661Z,0.37
2019-04-29T02:37:19.956Z,0.40
2019-04-29T02:39:49.218Z,0.60
2019-04-29T02:42:24.497Z,0.10
2019-04-29T02:44:52.750Z,0.57
2019-04-29T02:47:20.534Z,0.67
2019-04-29T02:49:48.285Z,0.40
2019-04-29T02:52:16.077Z,0.70
2019-04-29T02:54:44.333Z,0.30
2019-04-29T02:57:19.585Z,0.23
2019-04-29T02:59:52.044Z,1.07
2019-04-29T03:02:36.409Z,0.50
2019-04-29T03:05:06.114Z,0.60
2019-04-29T03:07:33.913Z,0.43
2019-04-29T03:10:03.352Z,0.40
2019-04-29T03:12:31.151Z,0.30
2019-04-29T03:14:59.024Z,0.23
2019-04-29T03:17:26.898Z,0.50
2019-04-29T03:20:12.584Z,0.33
2019-04-29T03:22:41.986Z,0.47
2019-04-29T03:25:09.760Z,0.53
2019-04-29T03:27:37.619Z,0.00
2019-04-29T03:30:05.748Z,0.13
2019-04-29T03:32:33.589Z,0.20
2019-04-29T03:35:01.337Z,0.53
2019-04-29T03:37:29.167Z,0.50
2019-04-29T03:39:57.067Z,0.37
2019-04-29T03:42:24.934Z,0.57
2019-04-29T03:44:52.694Z,0.10
2019-04-29T03:47:20.478Z,0.37
2019-04-29T03:49:48.335Z,0.33
2019-04-29T03:52:16.229Z,0.10
2019-04-29T03:54:44.076Z,0.57
2019-04-29T03:57:13.682Z,0.70
2019-04-29T03:59:41.553Z,0.40
2019-04-29T04:02:13.611Z,0.10
2019-04-29T04:04:48.839Z,0.37
2019-04-29T04:07:18.110Z,0.20
2019-04-29T04:09:46.031Z,0.40
2019-04-29T04:12:13.895Z,0.10
2019-04-29T04:14:41.668Z,0.20
2019-04-29T04:17:10.968Z,0.30
2019-04-29T04:19:38.717Z,0.43
2019-04-29T04:22:06.391Z,0.20
2019-04-29T04:24:34.257Z,0.60
2019-04-29T04:27:02.134Z,0.27
2019-04-29T04:29:30.001Z,0.10
2019-04-29T04:31:57.722Z,0.10
2019-04-29T04:34:25.422Z,0.10
2019-04-29T04:36:53.149Z,0.30
2019-04-29T04:39:20.889Z,0.17
2019-04-29T04:41:48.550Z,0.10
2019-04-29T04:44:16.256Z,0.40
2019-04-29T04:46:44.156Z,0.20
2019-04-29T04:49:15.589Z,0.00
2019-04-29T04:51:41.237Z,0.20
2019-04-29T04:54:08.994Z,0.20
2019-04-29T04:56:36.850Z,0.00
2019-04-29T04:59:04.714Z,0.10
2019-04-29T05:01:32.593Z,0.13
2019-04-29T05:04:00.558Z,0.20
2019-04-29T05:06:28.334Z,0.43
2019-04-29T05:08:56.099Z,0.40
2019-04-29T05:11:23.865Z,0.40
2019-04-29T05:13:51.613Z,0.43
2019-04-29T05:16:19.392Z,0.40
2019-04-29T05:18:47.148Z,0.33
2019-04-29T05:21:14.934Z,0.43
2019-04-29T05:23:42.793Z,0.20
2019-04-29T05:26:10.548Z,0.30
2019-04-29T05:28:38.426Z,0.67
2019-04-29T05:31:06.291Z,0.23
2019-04-29T05:33:34.066Z,0.70
2019-04-29T05:36:18.308Z,0.93
2019-04-29T05:38:47.617Z,0.70
2019-04-29T05:41:15.376Z,0.47
2019-04-29T05:43:56.778Z,0.20
2019-04-29T05:46:26.169Z,0.40
2019-04-29T05:48:53.858Z,0.33
2019-04-29T05:51:27.266Z,0.43
2019-04-29T05:53:59.915Z,0.20
2019-04-29T05:56:27.676Z,0.20
2019-04-29T05:58:55.450Z,0.23
2019-04-29T06:01:24.852Z,0.33
2019-04-29T06:03:52.509Z,0.10
2019-04-29T06:06:20.268Z,0.23
2019-04-29T06:08:48.049Z,0.13
2019-04-29T06:11:15.801Z,0.40
2019-04-29T06:13:43.564Z,0.40
2019-04-29T06:16:11.450Z,0.50
2019-04-29T06:18:40.881Z,0.20
2019-04-29T06:21:09.764Z,0.30
2019-04-29T06:23:37.618Z,0.23
2019-04-29T06:26:05.587Z,0.13
2019-04-29T06:28:33.449Z,0.20
2019-04-29T06:31:01.537Z,0.10
2019-04-29T06:33:30.982Z,0.47
2019-04-29T06:35:59.006Z,0.27
2019-04-29T06:38:26.771Z,0.30
2019-04-29T06:40:54.634Z,0.30
2019-04-29T06:43:24.460Z,0.20
2019-04-29T06:45:51.730Z,0.70
2019-04-29T06:48:19.417Z,0.27
2019-04-29T06:50:49.658Z,0.20
2019-04-29T06:53:21.206Z,0.47
2019-04-29T06:55:46.032Z,0.10
2019-04-29T06:58:13.817Z,0.20
2019-04-29T07:00:41.468Z,0.10
2019-04-29T07:03:09.233Z,0.50
2019-04-29T07:05:37.100Z,0.30
2019-04-29T07:08:05.372Z,0.65
2019-04-29T07:10:33.078Z,0.57
2019-04-29T07:13:00.765Z,0.57
2019-04-29T07:15:28.681Z,0.27
2019-04-29T07:17:56.447Z,0.53
2019-04-29T07:20:24.310Z,0.57
2019-04-29T07:22:52.013Z,0.50
2019-04-29T07:25:19.733Z,0.50
2019-04-29T07:27:47.501Z,1.00
2019-04-29T07:30:15.586Z,0.50
2019-04-29T07:32:47.227Z,0.60
2019-04-29T07:35:12.864Z,0.37
2019-04-29T07:37:40.631Z,0.67
2019-04-29T07:40:09.410Z,0.20
2019-04-29T07:42:37.286Z,0.30
2019-04-29T07:45:28.000Z,0.53
2019-04-29T07:47:56.645Z,0.87
2019-04-29T07:50:26.896Z,0.80
2019-04-29T07:52:53.732Z,0.43
2019-04-29T07:55:21.493Z,0.93
2019-04-29T07:57:52.204Z,0.57
2019-04-29T08:00:20.318Z,0.43
2019-04-29T08:02:48.177Z,0.57
2019-04-29T08:05:15.957Z,0.93
2019-04-29T08:07:43.805Z,0.43
2019-04-29T08:10:23.399Z,1.33
2019-04-29T08:12:41.901Z,0.27
2019-04-29T08:15:09.987Z,1.33
2019-04-29T08:17:38.256Z,0.80
2019-04-29T08:20:06.451Z,0.70
2019-04-29T08:22:34.292Z,0.83
2019-04-29T08:25:02.073Z,0.70
2019-04-29T08:27:39.853Z,0.63
2019-04-29T08:29:59.228Z,0.40
2019-04-29T08:32:27.002Z,0.73
2019-04-29T08:34:58.313Z,0.57
2019-04-29T08:37:25.030Z,0.57
2019-04-29T08:40:08.423Z,0.20
2019-04-29T08:42:23.793Z,0.30
2019-04-29T08:45:04.921Z,0.30
2019-04-29T08:47:34.221Z,0.40
2019-04-29T08:50:02.027Z,0.83
2019-04-29T08:52:29.822Z,0.20
2019-04-29T08:54:57.591Z,1.30
2019-04-29T08:57:25.344Z,1.23
2019-04-29T08:59:53.105Z,0.90
2019-04-29T09:02:33.954Z,1.33
2019-04-29T09:04:53.840Z,0.40
2019-04-29T09:07:22.161Z,0.20
2019-04-29T09:09:49.202Z,1.27
2019-04-29T09:12:19.325Z,1.07
2019-04-29T09:14:46.370Z,0.53
2019-04-29T09:17:20.552Z,0.53
2019-04-29T09:19:43.534Z,1.13
2019-04-29T09:22:13.044Z,0.63
2019-04-29T09:24:43.675Z,0.40
2019-04-29T09:27:13.389Z,0.30
2019-04-29T09:29:41.249Z,1.03
2019-04-29T09:32:09.130Z,0.47
2019-04-29T09:34:36.903Z,0.77
2019-04-29T09:37:04.662Z,0.60
2019-04-29T09:39:43.015Z,0.43
2019-04-29T09:42:08.165Z,0.83
2019-04-29T09:44:44.895Z,0.90
2019-04-29T09:47:11.878Z,0.60
2019-04-29T09:49:39.570Z,1.20
2019-04-29T09:52:07.325Z,0.57
2019-04-29T09:54:35.054Z,1.70
2019-04-29T09:57:02.774Z,0.67
2019-04-29T09:59:31.993Z,0.30
2019-04-29T10:02:10.339Z,0.83
2019-04-29T10:04:57.084Z,1.07
2019-04-29T10:07:25.158Z,0.70
2019-04-29T10:09:57.540Z,0.70
2019-04-29T10:12:22.417Z,0.50
2019-04-29T10:14:50.293Z,0.73
2019-04-29T10:17:34.958Z,0.77
2019-04-29T10:20:19.516Z,0.20
2019-04-29T10:22:50.214Z,0.70
2019-04-29T10:25:16.788Z,0.93
2019-04-29T10:27:44.659Z,0.90
2019-04-29T10:30:12.852Z,0.63
2019-04-29T10:32:42.506Z,0.67
2019-04-29T10:35:10.701Z,0.70
2019-04-29T10:37:38.598Z,1.50
2019-04-29T10:40:11.776Z,1.63
2019-04-29T10:42:43.533Z,0.87
2019-04-29T10:45:29.739Z,0.87
2019-04-29T10:47:59.035Z,0.93
2019-04-29T10:50:35.197Z,0.60
2019-04-29T10:53:02.933Z,1.70
2019-04-29T10:55:31.780Z,0.57
2019-04-29T10:57:59.746Z,0.47
2019-04-29T11:00:57.380Z,0.80
2019-04-29T11:03:25.103Z,0.73
2019-04-29T11:06:00.429Z,0.60
2019-04-29T11:08:42.840Z,0.60
2019-04-29T11:11:22.140Z,1.20
2019-04-29T11:13:46.861Z,1.07
2019-04-29T11:16:09.899Z,1.63
2019-04-29T11:18:37.981Z,0.90
2019-04-29T11:21:08.822Z,2.30
2019-04-29T11:23:37.204Z,0.90
2019-04-29T11:26:09.595Z,1.27
2019-04-29T11:28:36.917Z,1.90
2019-04-29T11:31:04.651Z,0.93
2019-04-29T11:33:40.034Z,1.63
2019-04-29T11:36:08.046Z,2.00
2019-04-29T11:38:38.417Z,1.30
2019-04-29T11:41:05.076Z,1.27
2019-04-29T11:43:32.752Z,0.70
2019-04-29T11:46:00.492Z,1.93
2019-04-29T11:48:28.274Z,1.07
2019-04-29T11:51:00.346Z,0.70
2019-04-29T11:53:28.093Z,0.77
2019-04-29T11:55:56.997Z,0.93
2019-04-29T11:58:27.119Z,0.87
2019-04-29T12:01:04.100Z,1.10
2019-04-29T12:03:33.825Z,1.67
2019-04-29T12:06:03.108Z,1.13
2019-04-29T12:08:30.980Z,0.83
2019-04-29T12:11:07.156Z,1.77
2019-04-29T12:13:29.895Z,1.80
2019-04-29T12:16:01.645Z,0.63
2019-04-29T12:18:34.024Z,0.70
2019-04-29T12:21:02.098Z,1.13
2019-04-29T12:23:29.972Z,1.30
2019-04-29T12:25:58.772Z,0.50
2019-04-29T12:28:27.125Z,0.80
2019-04-29T12:30:59.509Z,0.47
2019-04-29T12:33:32.538Z,0.77
2019-04-29T12:36:08.858Z,0.90
2019-04-29T12:38:48.826Z,0.47
2019-04-29T12:41:31.678Z,1.07
2019-04-29T12:44:01.091Z,0.83
2019-04-29T12:46:30.546Z,0.83
2019-04-29T12:48:58.424Z,1.03
2019-04-29T12:51:26.386Z,0.90
2019-04-29T12:53:54.041Z,1.47
2019-04-29T12:56:25.957Z,0.57
2019-04-29T12:58:55.279Z,0.40
2019-04-29T13:01:51.569Z,1.10
2019-04-29T13:04:14.875Z,0.40
2019-04-29T13:06:48.209Z,0.93
2019-04-29T13:09:35.533Z,0.80
2019-04-29T13:12:18.019Z,0.43
2019-04-29T13:14:34.833Z,0.57
2019-04-29T13:17:21.022Z,0.50
2019-04-29T13:20:00.687Z,0.73
2019-04-29T13:22:19.767Z,1.10
2019-04-29T13:24:47.512Z,0.77
2019-04-29T13:27:16.193Z,1.33
2019-04-29T13:29:44.494Z,0.40
2019-04-29T13:32:12.460Z,0.30
2019-04-29T13:34:41.853Z,1.50
2019-04-29T13:37:18.413Z,1.77
2019-04-29T13:39:40.327Z,0.60
2019-04-29T13:42:10.696Z,0.73
2019-04-29T13:44:44.987Z,0.73
2019-04-29T13:47:11.754Z,0.80
2019-04-29T13:49:41.066Z,0.80
2019-04-29T13:52:08.912Z,0.67
2019-04-29T13:54:37.214Z,0.30
2019-04-29T13:57:08.908Z,0.90
2019-04-29T13:59:42.149Z,1.73
2019-04-29T14:02:14.789Z,0.50
2019-04-29T14:04:44.350Z,0.50
2019-04-29T14:07:14.170Z,0.80
2019-04-29T14:09:41.717Z,0.60
2019-04-29T14:12:46.453Z,0.20
2019-04-29T14:14:38.877Z,0.53
2019-04-29T14:17:24.651Z,1.37
2019-04-29T14:19:42.300Z,1.23
2019-04-29T14:22:21.049Z,0.77
2019-04-29T14:24:36.398Z,0.70
2019-04-29T14:27:04.398Z,0.67
2019-04-29T14:29:32.114Z,0.50
2019-04-29T14:32:01.388Z,1.03
2019-04-29T14:34:47.436Z,1.70
2019-04-29T14:37:23.489Z,3.00
2019-04-29T14:39:44.592Z,2.03
2019-04-29T14:42:14.013Z,0.30
2019-04-29T14:44:43.511Z,0.43
2019-04-29T14:47:12.900Z,0.40
2019-04-29T14:49:45.404Z,0.20
2019-04-29T14:52:14.896Z,0.10
2019-04-29T14:54:43.587Z,1.23
2019-04-29T14:57:11.448Z,0.40
2019-04-29T14:59:39.356Z,0.20
2019-04-29T15:02:16.110Z,0.30
2019-04-29T15:04:39.815Z,0.70
2019-04-29T15:07:07.797Z,0.67
2019-04-29T15:09:46.506Z,0.40
2019-04-29T15:12:17.265Z,0.20
2019-04-29T15:15:01.241Z,0.40
2019-04-29T15:17:46.702Z,0.70
2019-04-29T15:20:25.414Z,0.67
2019-04-29T15:22:51.586Z,0.47
2019-04-29T15:25:20.975Z,0.30
2019-04-29T15:27:48.758Z,0.83
2019-04-29T15:30:16.736Z,0.30
2019-04-29T15:32:44.587Z,0.20
2019-04-29T15:35:12.578Z,0.97
2019-04-29T15:37:40.301Z,1.23
2019-04-29T15:40:08.036Z,1.33
2019-04-29T15:42:37.930Z,0.30
2019-04-29T15:45:08.139Z,0.40
2019-04-29T15:47:35.940Z,0.87
2019-04-29T15:50:18.149Z,0.97
2019-04-29T15:52:33.365Z,1.23
2019-04-29T15:55:01.153Z,0.83
2019-04-29T15:57:29.108Z,0.50
2019-04-29T16:00:00.039Z,0.30
2019-04-29T16:02:26.390Z,0.20
2019-04-29T16:05:14.785Z,0.60
2019-04-29T16:07:58.071Z,0.50
2019-04-29T16:10:33.711Z,0.60
2019-04-29T16:13:03.022Z,0.77
2019-04-29T16:15:30.774Z,0.70
2019-04-29T16:17:58.649Z,0.87
2019-04-29T16:20:26.324Z,1.43
2019-04-29T16:23:00.076Z,0.50
2019-04-29T16:25:23.324Z,0.90
2019-04-29T16:27:53.319Z,0.83
2019-04-29T16:30:20.579Z,1.40
2019-04-29T16:32:48.525Z,0.97
2019-04-29T16:37:45.899Z,1.27
2019-04-29T16:40:13.756Z,0.67
2019-04-29T16:42:51.660Z,1.13
2019-04-29T16:45:20.978Z,1.00
2019-04-29T16:47:48.836Z,0.50
2019-04-29T16:50:16.710Z,1.50
2019-04-29T16:52:44.693Z,0.70
2019-04-29T16:55:12.437Z,1.27
2019-04-29T16:57:40.100Z,1.33
2019-04-29T17:00:13.813Z,1.70
2019-04-29T17:02:38.708Z,0.90
2019-04-29T17:05:06.673Z,1.27
2019-04-29T17:07:34.859Z,0.77
2019-04-29T17:10:18.897Z,0.77
2019-04-29T17:12:48.312Z,1.20
2019-04-29T17:15:24.757Z,1.47
2019-04-29T17:17:45.588Z,1.27
2019-04-29T17:20:13.562Z,1.33
2019-04-29T17:22:43.213Z,0.83
2019-04-29T17:25:11.541Z,1.20
2019-04-29T17:27:53.142Z,1.67
2019-04-29T17:30:38.320Z,1.90
2019-04-29T17:33:26.358Z,1.00
2019-04-29T17:35:14.230Z,0.80
2019-04-29T17:35:47.715Z,1.33
2019-04-29T17:38:14.709Z,1.53
2019-04-29T17:40:50.928Z,1.90
2019-04-29T17:43:22.130Z,0.87
2019-04-29T17:46:06.776Z,1.30
2019-04-29T17:48:36.103Z,1.57
2019-04-29T17:51:05.667Z,0.67
2019-04-29T17:53:35.452Z,1.00
2019-04-29T17:56:05.367Z,1.27
2019-04-29T17:58:35.856Z,1.00
2019-04-29T18:01:18.334Z,0.70
2019-04-29T18:04:03.037Z,1.10
2019-04-29T18:06:35.196Z,1.83
2019-04-29T18:09:22.929Z,1.20
2019-04-29T18:11:53.524Z,0.93
2019-04-29T18:14:19.952Z,1.40
2019-04-29T18:16:47.967Z,1.67
2019-04-29T18:19:17.500Z,0.60
2019-04-29T18:22:01.946Z,1.00
2019-04-29T18:24:37.316Z,1.10
2019-04-29T18:27:05.560Z,0.63
2019-04-29T18:29:36.377Z,1.17
2019-04-29T18:32:05.245Z,1.00
2019-04-29T18:34:33.791Z,2.03
2019-04-29T18:37:01.771Z,2.20
2019-04-29T18:39:31.493Z,1.70
2019-04-29T18:42:03.181Z,1.23
2019-04-29T18:44:28.516Z,1.23
2019-04-29T18:46:57.330Z,1.20
2019-04-29T18:49:25.817Z,0.40
2019-04-29T18:51:53.665Z,1.20
2019-04-29T18:54:21.533Z,1.00
2019-04-29T18:56:49.604Z,2.30
2019-04-29T18:59:19.817Z,1.23
2019-04-29T19:01:46.779Z,2.27
2019-04-29T19:04:28.362Z,1.90
2019-04-29T19:07:02.150Z,2.47
2019-04-29T19:09:27.057Z,1.53
2019-04-29T19:11:55.312Z,1.80
2019-04-29T19:14:25.429Z,1.93
2019-04-29T19:16:52.673Z,1.73
2019-04-29T19:19:21.911Z,1.90
2019-04-29T19:21:49.693Z,2.83
2019-04-29T19:24:17.458Z,2.37
2019-04-29T19:26:45.209Z,1.77
2019-04-29T19:29:12.869Z,2.73
2019-04-29T19:31:46.638Z,2.03
2019-04-29T19:34:14.660Z,2.60
2019-04-29T19:36:39.345Z,2.77
2019-04-29T19:39:07.135Z,2.33
2019-04-29T19:41:35.602Z,1.53
2019-04-29T19:44:05.845Z,2.43
2019-04-29T19:46:39.734Z,2.77
2019-04-29T19:49:07.347Z,1.80
2019-04-29T19:51:31.617Z,1.87
2019-04-29T19:53:59.281Z,2.73
2019-04-29T19:56:27.324Z,1.03
2019-04-29T19:58:57.535Z,1.90
2019-04-29T20:01:29.711Z,1.73
2019-04-29T20:03:58.542Z,1.60
2019-04-29T20:06:30.040Z,1.43
2019-04-29T20:09:00.759Z,0.57
2019-04-29T20:11:32.561Z,1.20
2019-04-29T20:14:05.757Z,0.50
2019-04-29T20:16:40.251Z,1.10
2019-04-29T20:21:28.766Z,1.33
2019-04-29T20:21:42.192Z,0.87
2019-04-29T20:24:15.348Z,1.53
2019-04-29T20:26:43.457Z,1.57
2019-04-29T20:29:08.996Z,1.47
2019-04-29T20:31:39.004Z,2.27
2019-04-29T20:34:06.209Z,2.90
2019-04-29T20:36:41.746Z,0.90
2019-04-29T20:39:06.497Z,1.80
2019-04-29T20:41:40.706Z,1.00
2019-04-29T20:44:05.848Z,1.73
2019-04-29T20:46:43.190Z,1.20
2019-04-29T20:49:02.031Z,2.50
2019-04-29T20:51:47.855Z,1.27
2019-04-29T20:54:01.019Z,1.97
2019-04-29T20:56:34.655Z,1.53
2019-04-29T20:59:01.965Z,1.37
2019-04-29T21:01:38.200Z,1.80
2019-04-29T21:04:01.595Z,1.90
2019-04-29T21:06:32.657Z,2.63
2019-04-29T21:08:59.107Z,2.67
2019-04-29T21:11:37.409Z,1.37
2019-04-29T21:14:15.918Z,1.70
2019-04-29T21:16:45.235Z,1.83
2019-04-29T21:19:12.986Z,2.93
2019-04-29T21:21:41.761Z,2.30
2019-04-29T21:24:13.909Z,2.23
2019-04-29T21:26:44.426Z,1.30
2019-04-29T21:29:10.682Z,1.10
2019-04-29T21:31:38.040Z,1.13
2019-04-29T21:34:05.844Z,2.90
2019-04-29T21:36:41.169Z,1.53
2019-04-29T21:39:10.486Z,2.07
2019-04-29T21:41:42.752Z,2.23
2019-04-29T21:44:10.408Z,1.33
2019-04-29T21:46:38.200Z,1.23
2019-04-29T21:49:11.505Z,1.63
2019-04-29T21:51:35.555Z,1.43
2019-04-29T21:54:03.244Z,1.67
2019-04-29T21:56:31.087Z,0.77
2019-04-29T21:59:02.740Z,2.03
2019-04-29T22:01:29.440Z,1.33
2019-04-29T22:04:01.728Z,1.80
2019-04-29T22:06:29.004Z,3.00
2019-04-29T22:09:01.334Z,1.93
2019-04-29T22:11:26.068Z,2.03
2019-04-29T22:13:55.515Z,1.90
2019-04-29T22:16:25.148Z,2.47
2019-04-29T22:18:53.184Z,0.90
2019-04-29T22:21:22.433Z,1.20
2019-04-29T22:23:52.211Z,1.03
2019-04-29T22:26:23.269Z,0.80
2019-04-29T22:28:53.363Z,0.70
2019-04-29T22:31:18.941Z,1.30
2019-04-29T22:33:48.780Z,0.73
2019-04-29T22:36:18.105Z,0.77
2019-04-29T22:38:48.593Z,1.83
2019-04-29T22:41:20.049Z,1.13
2019-04-29T22:43:49.939Z,1.00
2019-04-29T22:46:17.671Z,1.07
2019-04-29T22:48:48.424Z,0.77
2019-04-29T22:51:18.690Z,1.13
2019-04-29T22:53:47.097Z,1.20
2019-04-29T22:56:13.945Z,1.17
2019-04-29T22:58:43.940Z,1.13
2019-04-29T23:01:12.226Z,0.80
2019-04-29T23:03:39.877Z,0.37
2019-04-29T23:06:08.487Z,1.17
2019-04-29T23:08:38.063Z,0.83
2019-04-29T23:11:05.769Z,0.70
2019-04-29T23:13:33.435Z,0.93
2019-04-29T23:16:02.258Z,1.10
2019-04-29T23:18:40.954Z,1.00
2019-04-29T23:21:03.990Z,1.47
2019-04-29T23:23:33.511Z,1.03
2019-04-29T23:26:04.168Z,0.33
2019-04-29T23:28:30.866Z,1.00
2019-04-29T23:30:58.626Z,2.07
2019-04-29T23:33:26.503Z,1.07
2019-04-29T23:35:55.954Z,0.57
2019-04-29T23:38:25.418Z,1.03
2019-04-29T23:40:54.577Z,1.10
2019-04-29T23:43:25.336Z,0.50
2019-04-29T23:45:55.977Z,0.83
2019-04-29T23:48:23.833Z,1.23
2019-04-29T23:50:56.565Z,1.37
2019-04-29T23:53:20.824Z,1.03
2019-04-29T23:55:49.069Z,0.73
2019-04-29T23:58:24.387Z,0.70
